x

Lake Of The Woods (45148) Weather Station

3:00pm - Thu 20th Jul 2017 All times are UTC.

  • Peak Period 2s
  • Wind
    2mph, 4mph gusts
  • Sea Temp 67°f
  • Air Temp 65°f
  • Sea Pressure 1016.5mb

More Historic Weather Station data

Upgrade to MSW Pro to gain access to the past 30 days of data for over 8000 Wavebouys and Weather Stations around the globe.

Join Pro

Comparision Forecast

View Surf forecast
   
Thu 07/20 3:00pm  -  2s 2 4 mph 1016.5mb 67f 65f
2:00pm  -  2s 4 4 mph 1016.4mb 66f 64f
1:00pm  -  2s 4 9 mph 1016mb 66f 62f
12:00pm  -  2s 9 11 mph 1015.3mb 66f 62f
11:00am  -  2s 11 13 mph 1014.2mb 66f 62f
10:00am  -  2s 9 11 mph 1013.4mb 66f 64f
9:00am  -  2s 9 11 mph 1012.9mb 66f 65f
8:00am  -  2s 9 13 mph 1012.6mb 66f 65f
7:00am  -  3s 11 13 mph 1012mb 66f 67f
6:00am  -  2s 9 11 mph 1011.7mb 66f 67f
5:00am  -  2s 7 7 mph 1011.5mb 66f 67f
4:00am  -  2s 4 7 mph 1011.4mb 66f 67f
3:00am  -  3s 4 7 mph 1011.1mb 66f 68f
2:00am 0.3ft 2s 4 7 mph 1010.4mb 66f 69f
1:00am 0.3ft 2s 9 13 mph 1010.3mb 66f 70f
12:00am  -  3s 9 13 mph 1010.6mb 67f 71f
Wed 07/19 11:00pm 0.3ft 3s 9 11 mph 1011mb 67f 71f
10:00pm 0.7ft 2s 13 16 mph 1011.5mb 67f 70f
9:00pm 1.3ft 2s 18 25 mph 1012.4mb 66f 70f
8:00pm 1ft 2s 27 36 mph 1012.1mb 67f 68f
7:00pm 0.3ft 2s 25 29 mph 1013.4mb 67f 68f
6:00pm 0.3ft 3s 11 13 mph 1015.7mb 67f 67f
5:00pm 0.3ft 3s 11 13 mph 1016.5mb 67f 66f
4:00pm  -  3s 11 11 mph 1017.3mb 67f 64f
3:00pm  -  2s 9 9 mph 1017.3mb 67f 63f
2:00pm  -  2s 4 7 mph 1018.2mb 67f 62f
1:00pm  -  2s 4 9 mph 1018.7mb 67f 61f
12:00pm  -  2s 4 7 mph 1018.7mb 67f 61f
11:00am  -  2s 4 4 mph 1018.5mb 67f 61f
10:00am  -  4s 2 4 mph 1019.3mb 67f 60f
9:00am  -  2s 4 4 mph 1019.4mb 67f 60f
8:00am  -  2s 4 7 mph 1019.4mb 67f 60f
7:00am  -  2s 7 9 mph 1019.2mb 67f 61f
6:00am  -  2s 7 9 mph 1018.7mb 67f 62f
5:00am  -  4s 11 13 mph 1018.5mb 67f 63f
4:00am  -  2s 9 11 mph 1018.1mb 67f 65f
3:00am  -  3s 11 13 mph 1017.6mb 67f 67f
2:00am 0.3ft 3s 13 18 mph 1016.4mb 67f 70f
1:00am 0.3ft 2s 11 16 mph 1015.8mb 68f 72f
12:00am 0.3ft 2s 13 20 mph 1015.3mb 68f 73f
Tue 07/18 11:00pm 0.3ft 2s 16 22 mph 1014.9mb 68f 74f
10:00pm 0.7ft 2s 16 20 mph 1014.5mb 68f 75f
9:00pm 0.7ft 2s 16 22 mph 1014.2mb 68f 75f
8:00pm 0.7ft 2s 18 25 mph 1014mb 68f 75f
7:00pm 0.7ft 2s 18 22 mph 1013.9mb 68f 73f
6:00pm 0.3ft 3s 18 25 mph 1014mb 68f 72f
5:00pm 0.3ft 2s 11 16 mph 1014.2mb 68f 69f
4:00pm 0.3ft 2s 9 11 mph 1014.8mb 67f 65f
3:00pm 0.3ft 2s 11 13 mph 1014.7mb 67f 64f
2:00pm 0.3ft 3s 9 11 mph 1014.1mb 67f 64f
1:00pm  -  3s 9 11 mph 1013.8mb 67f 64f
12:00pm 0.3ft 3s 9 11 mph 1013.3mb 67f 64f
11:00am  -  3s 9 11 mph 1012.9mb 67f 64f
10:00am  -  3s 7 9 mph 1012.1mb 67f 64f
9:00am  -  3s 7 9 mph 1012.2mb 68f 65f
8:00am  -  3s 7 7 mph 1012.1mb 68f 65f
7:00am  -  2s 7 9 mph 1012.1mb 68f 66f
6:00am  -  2s 4 7 mph 1011.8mb 68f 67f
5:00am  -  2s 7 9 mph 1011.4mb 68f 69f
4:00am  -  3s 9 9 mph 1010.9mb 68f 70f
3:00am  -  2s 9 11 mph 1010.2mb 68f 72f
2:00am  -  2s 7 7 mph 1009.6mb 68f 72f
1:00am  -  3s 7 13 mph 1008.9mb 69f 75f
12:00am  -  3s 13 18 mph 1008.1mb 69f 78f
Mon 07/17 11:00pm  -  2s 7 7 mph 1007.7mb 69f 77f
10:00pm  -  3s 4 4 mph 1007.8mb 69f 74f
9:00pm 0.3ft 2s 11 13 mph 1007.5mb 68f 73f
8:00pm 0.7ft 2s 9 13 mph 1007.5mb 68f 73f
7:00pm 0.3ft 3s 16 22 mph 1007.5mb 68f 75f
6:00pm 0.3ft 3s 13 16 mph 1007.7mb 68f 72f
5:00pm 0.3ft 2s 11 13 mph 1007.6mb 67f 70f
4:00pm 0.3ft 2s 9 11 mph 1007.4mb 67f 70f
3:00pm 0.3ft 2s 13 16 mph 1007.7mb 67f 67f
2:00pm 0.3ft 2s 9 16 mph 1007.7mb 67f 65f
1:00pm 0.7ft 2s 9 11 mph 1008.2mb 67f 65f
12:00pm 0.7ft 2s 13 20 mph 1008.3mb 67f 65f
11:00am 0.7ft 2s 18 22 mph 1009.5mb 67f 64f
10:00am 0.7ft 2s 18 25 mph 1009.8mb 67f 64f
9:00am 0.7ft 2s 16 20 mph 1010.5mb 67f 64f
8:00am 0.7ft 2s 16 22 mph 1011.6mb 67f 65f
7:00am 0.7ft 2s 13 20 mph 1011.2mb 67f 67f
6:00am 0.7ft 2s 18 20 mph 1011.1mb 68f 68f
5:00am 0.3ft 2s 13 18 mph 1011.8mb 68f 69f
4:00am 0.3ft 2s 11 13 mph 1011.9mb 68f 70f
3:00am 0.3ft 2s 13 16 mph 1012mb 68f 70f
2:00am 0.7ft 2s 13 18 mph 1012mb 68f 71f
1:00am 0.3ft 3s 16 18 mph 1012.5mb 68f 72f
12:00am 0.3ft 2s 11 13 mph 1014.2mb 68f 72f
Sun 07/16 11:00pm 0.3ft 3s 11 13 mph 1015mb 69f 72f
10:00pm 0.3ft 2s 11 13 mph 1015.9mb 68f 72f
9:00pm 0.3ft 2s 11 13 mph 1017.1mb 68f 71f
8:00pm 0.3ft 3s 11 13 mph 1017.6mb 68f 70f
7:00pm 0.3ft 3s 9 11 mph 1018.9mb 68f 69f
6:00pm 0.3ft 3s 11 16 mph 1019.3mb 67f 68f
5:00pm 0.3ft 3s 11 13 mph 1020mb 67f 67f